• Join FlightAware (Why Join?)
  • Login
  • US Flag 
12:13AM EDT


 

Airport Tracker/Info


-or-


 

Live Flight TrackerFlight Track Log ✈ DAL268 ✈ 06-Sep-2013 ✈ KSFO - KJFK

Flight Track Log - Related Links

Times and Time Zones

All times are in EDT time to prevent confusion due to time zone crossing. See the DAL268 flight status page for this flight to view local times or setup timezone preferences in your user account.

Time Position Orientation Groundspeed Altitude Reporting Facility
EDT Latitude Longitude Course Direction KTS MPH feet Rate Location/Type
02:33PM 37.6167 -122.3740 31° Northeast 140 161  Level FlightAware ADS-B
02:33PM 37.6261 -122.3680 27° Northeast 172 198 200 2,100 Climbing FlightAware ADS-B
02:34PM 37.6372 -122.3600 30° Northeast 164 189 1,100 2,820 Climbing FlightAware ADS-B
02:34PM 37.6392 -122.3570 50° Northeast 167 192 1,200 2,220 Climbing FlightAware ADS-B
02:34PM 37.6417 -122.3540 44° Northeast 170 196 1,400 2,400 Climbing FlightAware ADS-B
02:34PM 37.6498 -122.3430 47° Northeast 173 199 2,000 2,100 Climbing FlightAware ADS-B
02:34PM 37.6586 -122.3300 49° Northeast 195 224 2,500 1,800 Climbing FlightAware ADS-B
02:34PM 37.6685 -122.3160 48° Northeast 217 250 2,900 1,320 Climbing FlightAware ADS-B
02:35PM 37.6798 -122.3010 46° Northeast 242 278 3,200 1,920 Climbing FlightAware ADS-B
02:35PM 37.6920 -122.2840 48° Northeast 257 296 3,900 2,820 Climbing FlightAware ADS-B
02:35PM 37.7125 -122.2570 46° Northeast 260 299 5,100 2,880 Climbing FlightAware ADS-B
02:35PM 37.7164 -122.2530 39° Northeast 267 307 5,300 3,240 Climbing FlightAware ADS-B
02:36PM 37.7233 -122.2460 39° Northeast 269 310 5,700 3,120 Climbing FlightAware ADS-B
02:36PM 37.7397 -122.2300 38° Northeast 271 312 6,500 3,000 Climbing FlightAware ADS-B
02:36PM 37.7496 -122.2200 39° Northeast 275 316 7,000 2,580 Climbing FlightAware ADS-B
02:36PM 37.7814 -122.1890 38° Northeast 287 330 8,300 2,520 Climbing FlightAware ADS-B
02:37PM 37.8015 -122.1700 37° Northeast 291 335 9,100 2,460 Climbing FlightAware ADS-B
02:37PM 37.8185 -122.1540 37° Northeast 302 348 9,700 2,040 Climbing FlightAware ADS-B
02:38PM 37.8542 -122.1200 37° Northeast 322 371 10,700 1,620 Climbing FlightAware ADS-B
02:38PM 37.8927 -122.0830 37° Northeast 352 405 11,400 1,320 Climbing FlightAware ADS-B
02:39PM 37.9348 -122.0430 37° Northeast 377 434 12,100 1,380 Climbing FlightAware ADS-B
02:39PM 37.9829 -121.9970 37° Northeast 400 460 12,900 1,800 Climbing FlightAware ADS-B
02:40PM 38.0280 -121.9530 38° Northeast 408 470 14,000 2,100 Climbing FlightAware ADS-B
02:40PM 38.0837 -121.8990 37° Northeast 408 470 15,300 1,980 Climbing FlightAware ADS-B
02:41PM 38.1690 -121.8180 37° Northeast 431 496 17,100 1,860 Climbing FlightAware
02:42PM 38.2270 -121.7620 37° Northeast 439 505 18,200 1,920 Climbing FlightAware
02:42PM 38.2790 -121.7120 37° Northeast 444 511 19,300 1,860 Climbing FlightAware
02:43PM 38.3410 -121.6520 37° Northeast 451 519 20,400 1,680 Climbing FlightAware
02:43PM 38.3890 -121.6050 38° Northeast 458 527 21,200 1,560 Climbing FlightAware
02:44PM 38.4400 -121.5490 41° Northeast 468 539 22,000 1,440 Climbing FlightAware
02:45PM 38.4890 -121.4760 49° Northeast 481 554 22,800 1,320 Climbing FlightAware
02:45PM 38.5420 -121.3840 54° Northeast 492 566 23,700 1,440 Climbing FlightAware
02:46PM 38.5870 -121.3070 53° Northeast 500 575 24,600 1,500 Climbing FlightAware
02:46PM 38.6350 -121.2230 54° Northeast 507 583 25,400 1,320 Climbing FlightAware
02:47PM 38.6860 -121.1350 53° Northeast 512 589 26,200 1,260 Climbing FlightAware
02:47PM 38.7340 -121.0510 54° Northeast 519 597 26,900 1,140 Climbing FlightAware
02:48PM 38.7840 -120.9660 53° Northeast 527 606 27,500 1,020 Climbing FlightAware
02:49PM 38.8320 -120.8820 54° Northeast 534 615 28,100 1,020 Climbing FlightAware
02:49PM 38.8860 -120.7870 54° Northeast 539 620 28,700 1,200 Climbing FlightAware
02:50PM 38.9380 -120.6980 53° Northeast 538 619 29,600 1,380 Climbing FlightAware
02:50PM 38.9930 -120.6040 53° Northeast 541 623 30,400 1,320 Climbing FlightAware
02:51PM 39.0420 -120.5200 53° Northeast 542 624 31,100 1,560 Climbing FlightAware
02:52PM 39.0940 -120.4290 54° Northeast 532 612 32,200 1,740 Climbing FlightAware
02:52PM 39.1430 -120.3430 54° Northeast 523 602 33,200 1,440 Climbing FlightAware
02:53PM 39.1940 -120.2530 54° Northeast 523 602 33,900 1,080 Climbing FlightAware
02:53PM 39.2450 -120.1640 53° Northeast 523 602 34,500 960 Climbing FlightAware
02:54PM 39.2950 -120.0750 54° Northeast 525 604 35,100 1,080 Climbing FlightAware
02:55PM 39.3470 -119.9830 54° Northeast 519 597 35,800 960 Climbing FlightAware
02:55PM 39.3980 -119.8920 54° Northeast 520 598 36,300 660 Climbing FlightAware
02:56PM 39.4410 -119.8160 54° Northeast 522 601 36,600 600 Climbing FlightAware
02:56PM 39.4940 -119.7220 54° Northeast 522 601 37,000 300 Climbing FlightAware
02:57PM 39.5450 -119.6310 54° Northeast 518 596 37,000  Level FlightAware
02:57PM 39.5900 -119.5510 54° Northeast 516 594 37,000  Level FlightAware
02:58PM 39.6410 -119.4600 54° Northeast 515 593 37,000  Level FlightAware
02:59PM 39.6900 -119.3710 54° Northeast 514 592 37,000  Level FlightAware
02:59PM 39.7380 -119.2850 54° Northeast 513 590 37,000  Level FlightAware
03:00PM 39.7880 -119.1940 54° Northeast 513 590 37,000  Level FlightAware
03:00PM 39.8360 -119.1070 54° Northeast 513 590 37,000  Level FlightAware
03:01PM 39.8810 -119.0250 54° Northeast 513 590 37,000  Level FlightAware
03:02PM 39.9330 -118.9300 54° Northeast 514 592 37,000  Level FlightAware
03:02PM 39.9790 -118.8460 54° Northeast 514 592 37,000  Level FlightAware
03:03PM 40.0240 -118.7640 54° Northeast 514 592 37,000  Level FlightAware
03:03PM 40.0240 -118.7640 54° Northeast 514 592 37,000  Level FlightAware
03:03PM 40.0750 -118.6710 54° Northeast 515 593 37,000  Level FlightAware
03:03PM 40.0750 -118.6710 54° Northeast 515 593 37,000  Level FlightAware
03:04PM 40.1200 -118.5770 58° Northeast 511 588 37,000  Level FlightAware
03:04PM 40.1200 -118.5770 58° Northeast 511 588 37,000  Level FlightAware
03:04PM 40.1550 -118.4700 67° East 509 586 37,000  Level FlightAware
03:04PM 40.1550 -118.4700 67° East 509 586 37,000  Level FlightAware
03:05PM 40.1810 -118.3780 70° East 508 585 37,000  Level FlightAware
03:05PM 40.1810 -118.3780 70° East 508 585 37,000  Level FlightAware
03:06PM 40.2090 -118.2760 70° East 508 585 37,000  Level FlightAware
03:06PM 40.2090 -118.2760 70° East 508 585 37,000  Level FlightAware
03:06PM 40.2350 -118.1800 70° East 507 583 37,000  Level FlightAware
03:06PM 40.2350 -118.1800 70° East 507 583 37,000  Level FlightAware
03:07PM 40.2680 -118.0560 71° East 506 582 37,000  Level FlightAware
03:07PM 40.2680 -118.0560 71° East 506 582 37,000  Level FlightAware
03:07PM 40.2970 -117.9490 70° East 506 582 37,000  Level FlightAware
03:07PM 40.2970 -117.9490 70° East 506 582 37,000  Level FlightAware
03:08PM 40.3350 -117.8110 70° East 506 582 37,000  Level FlightAware
03:08PM 40.3350 -117.8110 70° East 506 582 37,000  Level FlightAware
03:09PM 40.3640 -117.7020 71° East 506 582 37,000  Level FlightAware
03:09PM 40.3640 -117.7020 71° East 506 582 37,000  Level FlightAware
03:10PM 40.3890 -117.6140 70° East 506 582 37,000  Level FlightAware
03:10PM 40.3890 -117.6140 70° East 506 582 37,000  Level FlightAware
03:10PM 40.4130 -117.5250 70° East 506 582 37,000  Level FlightAware
03:10PM 40.4130 -117.5250 70° East 506 582 37,000  Level FlightAware
03:11PM 40.4430 -117.4170 70° East 506 582 37,000  Level FlightAware
03:11PM 40.4430 -117.4170 70° East 506 582 37,000  Level FlightAware
03:11PM 40.4660 -117.3340 70° East 506 582 37,000  Level FlightAware
03:11PM 40.4660 -117.3340 70° East 506 582 37,000  Level FlightAware
03:12PM 40.4910 -117.2450 70° East 506 582 37,000  Level FlightAware
03:12PM 40.4910 -117.2450 70° East 506 582 37,000  Level FlightAware
03:13PM 40.5160 -117.1540 70° East 506 582 37,000  Level FlightAware
03:13PM 40.5160 -117.1540 70° East 506 582 37,000  Level FlightAware
03:13PM 40.5390 -117.0700 70° East 506 582 37,000  Level FlightAware
03:13PM 40.5390 -117.0700 70° East 506 582 37,000  Level FlightAware
03:14PM 40.5630 -116.9820 70° East 506 582 37,000  Level FlightAware
03:14PM 40.5630 -116.9820 70° East 506 582 37,000  Level FlightAware
03:14PM 40.5880 -116.8930 70° East 506 582 37,000  Level FlightAware
03:14PM 40.5880 -116.8930 70° East 506 582 37,000  Level FlightAware
03:15PM 40.6120 -116.8040 70° East 506 582 37,000  Level FlightAware
03:15PM 40.6120 -116.8040 70° East 506 582 37,000  Level FlightAware
03:16PM 40.6370 -116.7160 69° East 506 582 37,000  Level FlightAware
03:16PM 40.6370 -116.7160 69° East 506 582 37,000  Level FlightAware
03:16PM 40.6610 -116.6270 70° East 506 582 37,000  Level FlightAware
03:16PM 40.6610 -116.6270 70° East 506 582 37,000  Level FlightAware
03:17PM 40.6870 -116.5360 69° East 506 582 37,000  Level FlightAware
03:17PM 40.6870 -116.5360 69° East 506 582 37,000  Level FlightAware
03:18PM 40.7120 -116.4420 71° East 506 582 37,000  Level FlightAware
03:18PM 40.7120 -116.4420 71° East 506 582 37,000  Level FlightAware
03:18PM 40.7929 -116.0920 73° East 511 588 37,000  Level FlightAware ADS-B
03:18PM 40.7929 -116.0920 73° East 511 588 37,000  Level FlightAware ADS-B
03:19PM 40.8159 -116.0050 71° East 512 589 37,000  Level FlightAware ADS-B
03:19PM 40.8159 -116.0050 71° East 512 589 37,000  Level FlightAware ADS-B
03:19PM 40.8515 -115.8700 71° East 513 590 37,000  Level FlightAware ADS-B
03:19PM 40.8515 -115.8700 71° East 513 590 37,000  Level FlightAware ADS-B
03:20PM 40.8756 -115.7780 71° East 513 590 37,000  Level FlightAware ADS-B
03:20PM 40.8756 -115.7780 71° East 513 590 37,000  Level FlightAware ADS-B
03:22PM 41.0156 -115.3430 67° East 516 594 37,000  Level FlightAware ADS-B
03:22PM 41.0156 -115.3430 67° East 516 594 37,000  Level FlightAware ADS-B
03:23PM 41.0447 -115.2570 66° East 516 594 37,000  Level FlightAware ADS-B
03:23PM 41.0447 -115.2570 66° East 516 594 37,000  Level FlightAware ADS-B
03:23PM 41.0786 -115.1570 66° East 516 594 37,000  Level FlightAware ADS-B
03:23PM 41.0786 -115.1570 66° East 516 594 37,000  Level FlightAware ADS-B
03:24PM 41.1102 -115.0640 66° East 516 594 37,000  Level FlightAware ADS-B
03:24PM 41.1102 -115.0640 66° East 516 594 37,000  Level FlightAware ADS-B
03:25PM 41.1409 -114.9740 66° East 515 593 37,000  Level FlightAware ADS-B
03:25PM 41.1409 -114.9740 66° East 515 593 37,000  Level FlightAware ADS-B
03:25PM 41.1703 -114.8890 65° Northeast 513 590 37,000  Level FlightAware ADS-B
03:25PM 41.1703 -114.8890 65° Northeast 513 590 37,000  Level FlightAware ADS-B
03:26PM 41.2078 -114.7780 66° East 513 590 37,000  Level FlightAware ADS-B
03:26PM 41.2078 -114.7780 66° East 513 590 37,000  Level FlightAware ADS-B
03:26PM 41.2479 -114.6500 67° East 512 589 37,000  Level FlightAware ADS-B
03:26PM 41.2479 -114.6500 67° East 512 589 37,000  Level FlightAware ADS-B
03:27PM 41.2640 -114.5940 69° East 510 587 37,000  Level FlightAware ADS-B
03:27PM 41.2640 -114.5940 69° East 510 587 37,000  Level FlightAware ADS-B
03:27PM 41.2780 -114.5380 72° East 506 582 37,000  Level FlightAware ADS-B
03:27PM 41.2780 -114.5380 72° East 506 582 37,000  Level FlightAware ADS-B
03:28PM 41.2962 -114.4460 75° East 504 580 37,000  Level FlightAware ADS-B
03:28PM 41.2962 -114.4460 75° East 504 580 37,000  Level FlightAware ADS-B
03:28PM 41.3048 -114.3890 79° East 500 575 37,000  Level FlightAware ADS-B
03:28PM 41.3048 -114.3890 79° East 500 575 37,000  Level FlightAware ADS-B
03:28PM 41.3161 -114.2790 82° East 499 574 37,000  Level FlightAware ADS-B
03:28PM 41.3161 -114.2790 82° East 499 574 37,000  Level FlightAware ADS-B
03:29PM 41.3282 -114.1700 82° East 499 574 37,000  Level FlightAware ADS-B
03:29PM 41.3282 -114.1700 82° East 499 574 37,000  Level FlightAware ADS-B
03:30PM 41.3382 -114.0790 82° East 499 574 37,000  Level FlightAware ADS-B
03:30PM 41.3382 -114.0790 82° East 499 574 37,000  Level FlightAware ADS-B
03:30PM 41.3480 -113.9870 82° East 498 573 37,000  Level FlightAware ADS-B
03:30PM 41.3480 -113.9870 82° East 498 573 37,000  Level FlightAware ADS-B
03:31PM 41.3575 -113.8960 82° East 495 570 37,000  Level FlightAware ADS-B
03:31PM 41.3575 -113.8960 82° East 495 570 37,000  Level FlightAware ADS-B
03:31PM 41.3674 -113.8020 82° East 493 567 37,000  Level FlightAware ADS-B
03:31PM 41.3674 -113.8020 82° East 493 567 37,000  Level FlightAware ADS-B
03:32PM 41.3790 -113.7120 80° East 492 566 37,000  Level FlightAware ADS-B
03:32PM 41.3790 -113.7120 80° East 492 566 37,000  Level FlightAware ADS-B
03:32PM 41.3912 -113.6220 80° East 491 565 37,000  Level FlightAware ADS-B
03:32PM 41.3912 -113.6220 80° East 491 565 37,000  Level FlightAware ADS-B
03:33PM 41.4032 -113.5300 80° East 491 565 37,000  Level FlightAware ADS-B
03:33PM 41.4032 -113.5300 80° East 491 565 37,000  Level FlightAware ADS-B
03:33PM 41.4149 -113.4390 80° East 492 566 37,000  Level FlightAware ADS-B
03:33PM 41.4149 -113.4390 80° East 492 566 37,000  Level FlightAware ADS-B
03:34PM 41.4279 -113.3350 81° East 493 567 37,000  Level FlightAware ADS-B
03:34PM 41.4279 -113.3350 81° East 493 567 37,000  Level FlightAware ADS-B
03:34PM 41.4398 -113.2400 80° East 494 568 37,000  Level FlightAware ADS-B
03:34PM 41.4398 -113.2400 80° East 494 568 37,000  Level FlightAware ADS-B
03:35PM 41.4510 -113.1490 81° East 494 568 37,000  Level FlightAware ADS-B
03:35PM 41.4510 -113.1490 81° East 494 568 37,000  Level FlightAware ADS-B
03:35PM 41.4622 -113.0580 81° East 495 570 37,000  Level FlightAware ADS-B
03:35PM 41.4622 -113.0580 81° East 495 570 37,000  Level FlightAware ADS-B
03:36PM 41.4738 -112.9630 81° East 493 567 37,000  Level FlightAware ADS-B
03:36PM 41.4738 -112.9630 81° East 493 567 37,000  Level FlightAware ADS-B
03:36PM 41.4883 -112.8430 81° East 493 567 37,000  Level FlightAware ADS-B
03:36PM 41.4883 -112.8430 81° East 493 567 37,000  Level FlightAware ADS-B
03:37PM 41.5011 -112.7370 81° East 494 568 37,000  Level FlightAware ADS-B
03:37PM 41.5011 -112.7370 81° East 494 568 37,000  Level FlightAware ADS-B
03:38PM 41.5144 -112.6270 81° East 492 566 37,000  Level FlightAware ADS-B
03:38PM 41.5144 -112.6270 81° East 492 566 37,000  Level FlightAware ADS-B
03:38PM 41.5256 -112.5320 81° East 492 566 37,000  Level FlightAware ADS-B
03:38PM 41.5256 -112.5320 81° East 492 566 37,000  Level FlightAware ADS-B
03:39PM 41.5363 -112.4400 81° East 490 564 37,000  Level FlightAware ADS-B
03:39PM 41.5363 -112.4400 81° East 490 564 37,000  Level FlightAware ADS-B
03:39PM 41.5460 -112.3480 82° East 490 564 37,000  Level FlightAware ADS-B
03:39PM 41.5460 -112.3480 82° East 490 564 37,000  Level FlightAware ADS-B
03:40PM 41.5557 -112.2530 82° East 489 563 37,000  Level FlightAware ADS-B
03:40PM 41.5557 -112.2530 82° East 489 563 37,000  Level FlightAware ADS-B
03:40PM 41.5677 -112.1370 82° East 490 564 37,000  Level FlightAware ADS-B
03:40PM 41.5677 -112.1370 82° East 490 564 37,000  Level FlightAware ADS-B
03:41PM 41.5773 -112.0430 82° East 493 567 37,000  Level FlightAware ADS-B
03:41PM 41.5773 -112.0430 82° East 493 567 37,000  Level FlightAware ADS-B
03:42PM 41.5879 -111.9410 82° East 494 568 37,000  Level FlightAware ADS-B
03:42PM 41.5879 -111.9410 82° East 494 568 37,000  Level FlightAware ADS-B
03:42PM 41.5955 -111.8660 82° East 494 568 37,000  Level FlightAware ADS-B
03:42PM 41.5955 -111.8660 82° East 494 568 37,000  Level FlightAware ADS-B
03:43PM 41.6087 -111.7360 82° East 494 568 37,000  Level FlightAware ADS-B
03:43PM 41.6087 -111.7360 82° East 494 568 37,000  Level FlightAware ADS-B
03:43PM 41.6184 -111.6390 82° East 494 568 37,000  Level FlightAware ADS-B
03:43PM 41.6184 -111.6390 82° East 494 568 37,000  Level FlightAware ADS-B
03:44PM 41.6304 -111.5170 82° East 494 568 37,000  Level FlightAware ADS-B
03:44PM 41.6304 -111.5170 82° East 494 568 37,000  Level FlightAware ADS-B
03:44PM 41.6388 -111.4310 83° East 493 567 37,000  Level FlightAware ADS-B
03:44PM 41.6388 -111.4310 83° East 493 567 37,000  Level FlightAware ADS-B
03:45PM 41.6455 -111.3630 82° East 493 567 37,000  Level FlightAware ADS-B
03:45PM 41.6455 -111.3630 82° East 493 567 37,000  Level FlightAware ADS-B
03:45PM 41.6470 -111.3470 83° East 493 567 37,000  Level FlightAware ADS-B
03:45PM 41.6470 -111.3470 83° East 493 567 37,000  Level FlightAware ADS-B
03:46PM 41.6670 -111.1380 83° East 491 565 37,000  Level FlightAware ADS-B
03:46PM 41.6670 -111.1380 83° East 491 565 37,000  Level FlightAware ADS-B
03:46PM 41.6759 -111.0440 83° East 488 562 37,000  Level FlightAware ADS-B
03:46PM 41.6759 -111.0440 83° East 488 562 37,000  Level FlightAware ADS-B
03:47PM 41.6841 -110.9560 83° East 486 559 37,000  Level FlightAware ADS-B
03:47PM 41.6841 -110.9560 83° East 486 559 37,000  Level FlightAware ADS-B
03:47PM 41.6924 -110.8670 83° East 485 558 37,000  Level FlightAware ADS-B
03:47PM 41.6924 -110.8670 83° East 485 558 37,000  Level FlightAware ADS-B
03:48PM 41.7006 -110.7780 83° East 483 556 37,000  Level FlightAware ADS-B
03:48PM 41.7006 -110.7780 83° East 483 556 37,000  Level FlightAware ADS-B
03:48PM 41.7061 -110.7058 83° East 484 557 37,000  Level Salt Lake Center
03:50PM 41.7244 -110.5081 83° East 481 554 37,000  Level Salt Lake Center
03:51PM 41.7389 -110.3383 83° East 480 552 37,000  Level Salt Lake Center
03:52PM 41.7569 -110.1414 83° East 477 549 37,000  Level Salt Lake Center
03:53PM 41.7842 -109.9717 78° East 485 558 37,000  Level Salt Lake Center
03:54PM 41.8292 -109.7761 73° East 489 563 37,000  Level Salt Lake Center
03:55PM 41.8672 -109.6058 73° East 494 568 37,000  Level Salt Lake Center
03:56PM 41.9056 -109.4347 73° East 497 572 37,000  Level Salt Lake Center
03:57PM 41.9472 -109.2342 74° East 497 572 37,000  Level Salt Lake Center
03:58PM 41.9756 -109.0611 78° East 494 568 37,000  Level Salt Lake Center
03:59PM 41.9944 -108.8575 83° East 491 565 37,000  Level Salt Lake Center
04:00PM 42.0097 -108.6817 83° East 492 566 37,000  Level Salt Lake Center
04:01PM 42.0264 -108.5083 83° East 490 564 37,000  Level Salt Lake Center
04:02PM 42.0431 -108.3058 84° East 488 562 37,000  Level Salt Lake Center
04:03PM 42.0600 -108.1339 82° East 485 558 37,000  Level Salt Lake Center
04:04PM 42.0719 -107.9261 86° East 496 571 37,000  Level Salt Lake Center
04:05PM 42.0875 -107.7525 83° East 493 567 37,000  Level Salt Lake Center
04:06PM 42.1028 -107.5800 83° East 490 564 37,000  Level Denver Center
04:07PM 42.1178 -107.4061 83° East 488 562 37,000  Level Denver Center
04:08PM 42.1311 -107.2019 85° East 489 563 37,000  Level Denver Center
04:09PM 42.1450 -107.0281 84° East 488 562 37,000  Level Denver Center
04:10PM 42.1603 -106.8247 84° East 488 562 37,000  Level Denver Center
04:11PM 42.1742 -106.6511 84° East 487 560 37,000 420 Level Denver Center
04:12PM 42.1864 -106.4519 85° East 486 559 37,900 720 Climbing Denver Center
04:13PM 42.1983 -106.2803 85° East 481 554 38,600 480 Climbing Denver Center
04:14PM 42.2133 -106.0797 84° East 480 552 39,000 180 Climbing Denver Center
04:15PM 42.2233 -105.9061 85° East 484 557 39,000  Level Denver Center
04:16PM 42.2383 -105.7061 84° East 481 554 39,000  Level Denver Center
04:17PM 42.2489 -105.5328 85° East 483 556 39,000  Level Denver Center
04:18PM 42.2608 -105.3311 85° East 485 558 39,000  Level Denver Center
04:19PM 42.2717 -105.1581 85° East 485 558 39,000  Level Denver Center
04:20PM 42.2819 -104.9583 86° East 481 554 39,000  Level Denver Center
04:21PM 42.2919 -104.7856 85° East 484 557 39,000  Level Denver Center
04:22PM 42.3011 -104.5869 86° East 480 552 39,000  Level Denver Center
04:24PM 42.3114 -104.4164 85° East 482 555 39,000  Level Denver Center
04:25PM 42.3222 -104.2161 86° East 482 555 39,000  Level Denver Center
04:26PM 42.3342 -103.9908 86° East 476 548 39,000  Level Denver Center
04:27PM 42.3425 -103.8197 86° East 476 548 39,000  Level Denver Center
04:28PM 42.3525 -103.6217 86° East 474 545 39,000  Level Denver Center
04:29PM 42.3608 -103.4239 87° East 473 544 39,000  Level Denver Center
04:30PM 42.3694 -103.2258 87° East 472 543 39,000  Level Denver Center
04:31PM 42.3772 -103.0556 86° East 474 545 39,000  Level Denver Center
04:32PM 42.3853 -102.8572 87° East 474 545 39,000  Level Denver Center
04:33PM 42.3917 -102.6869 87° East 474 545 39,000  Level Denver Center
04:34PM 42.3997 -102.4867 87° East 477 549 39,000  Level Denver Center
04:35PM 42.4039 -102.3183 88° East 470 541 39,000  Level Denver Center
04:36PM 42.4122 -102.1183 87° East 475 547 39,000  Level Denver Center
04:37PM 42.4178 -101.9472 87° East 476 548 39,000  Level Denver Center
04:38PM 42.4231 -101.7547 88° East 468 539 39,000  Level Denver Center
04:39PM 42.4281 -101.5811 88° East 479 551 39,000  Level Denver Center
04:41PM 42.4328 -101.3825 88° East 473 544 39,000  Level Denver Center
04:42PM 42.4383 -101.1806 88° East 480 552 39,000  Level Denver Center
04:43PM 42.4417 -100.9814 89° East 475 547 39,000  Level Denver Center
04:44PM 42.4467 -100.8092 88° East 476 548 39,000  Level Denver Center
04:45PM 42.4497 -100.6078 89° East 479 551 39,000  Level Denver Center
04:46PM 42.4522 -100.4342 89° East 480 552 39,000  Level Denver Center
04:47PM 42.4567 -100.2331 88° East 479 551 39,000  Level Denver Center
04:48PM 42.4586 -100.0778 89° East 477 549 39,000  Level Minneapolis Center
04:49PM 42.4600 -99.8986 89° East 477 549 39,000  Level Minneapolis Center
04:50PM 42.4633 -99.7217 88° East 472 543 39,000  Level Minneapolis Center
04:51PM 42.4656 -99.5439 89° East 472 543 39,000  Level Minneapolis Center
04:52PM 42.4678 -99.3336 89° East 466 536 39,000  Level Minneapolis Center
04:53PM 42.4689 -99.1575 89° East 466 536 39,000  Level Minneapolis Center
04:54PM 42.4694 -98.9828 90° East 464 534 39,000  Level Minneapolis Center
04:55PM 42.4703 -98.8072 90° East 464 534 39,000  Level Minneapolis Center
04:56PM 42.4756 -98.6322 88° East 463 533 39,000  Level Minneapolis Center
04:57PM 42.4822 -98.4564 87° East 465 535 39,000  Level Minneapolis Center
04:58PM 42.4906 -98.2817 86° East 465 535 39,000  Level Minneapolis Center
04:59PM 42.5014 -98.0725 86° East 464 534 39,000  Level Minneapolis Center
05:00PM 42.5092 -97.8983 86° East 463 533 39,000  Level Minneapolis Center
05:01PM 42.5172 -97.7117 87° East 464 534 39,000  Level Minneapolis Center
05:02PM 42.5244 -97.5383 87° East 461 531 39,000  Level Minneapolis Center
05:03PM 42.5306 -97.3647 87° East 461 531 39,000  Level Minneapolis Center
05:04PM 42.5375 -97.1903 87° East 463 533 39,000  Level Minneapolis Center
05:05PM 42.5439 -97.0194 87° East 456 525 39,000  Level Minneapolis Center
05:06PM 42.5503 -96.8464 87° East 457 526 39,000  Level Minneapolis Center
05:07PM 42.5561 -96.6742 87° East 458 527 39,000  Level Minneapolis Center
05:09PM 42.5639 -96.4700 87° East 452 520 39,000  Level Minneapolis Center
05:10PM 42.5692 -96.2975 88° East 454 522 39,000  Level Minneapolis Center
05:11PM 42.5731 -96.1269 88° East 452 520 39,000  Level Minneapolis Center
05:12PM 42.5783 -95.9578 88° East 449 517 39,000  Level Minneapolis Center
05:13PM 42.5839 -95.7864 87° East 451 519 39,000  Level Minneapolis Center
05:14PM 42.5872 -95.6139 88° East 455 524 39,000  Level Minneapolis Center
05:15PM 42.5908 -95.4392 88° East 460 529 39,000  Level Minneapolis Center
05:16PM 42.5953 -95.2325 88° East 457 526 39,000  Level Minneapolis Center
05:17PM 42.5989 -95.0586 88° East 459 528 39,000  Level Minneapolis Center
05:18PM 42.6025 -94.8844 88° East 461 531 39,000  Level Minneapolis Center
05:19PM 42.6053 -94.7111 89° East 459 528 39,000  Level Minneapolis Center
05:20PM 42.6069 -94.5319 89° East 457 526 39,000  Level Minneapolis Center
05:21PM 42.6094 -94.3589 89° East 461 531 39,000  Level Minneapolis Center
05:23PM 42.6133 -93.9789 89° East 463 533 39,000  Level Minneapolis Center
05:24PM 42.6142 -93.8042 90° East 465 535 39,000  Level Minneapolis Center
05:25PM 42.6153 -93.6306 89° East 466 536 39,000  Level Minneapolis Center
05:26PM 42.6156 -93.4575 90° East 465 535 39,000  Level Minneapolis Center
05:27PM 42.6164 -93.2858 90° East 461 531 39,000  Level Minneapolis Center
05:28PM 42.6161 -93.0772 90° East 465 535 39,000  Level Minneapolis Center
05:29PM 42.6158 -92.9047 90° East 463 533 39,000  Level Minneapolis Center
05:30PM 42.6161 -92.7314 90° East 464 534 39,000  Level Minneapolis Center
05:31PM 42.6153 -92.5575 90° East 464 534 39,000  Level Minneapolis Center
05:32PM 42.6139 -92.3497 90° East 465 535 39,000  Level Minneapolis Center
05:33PM 42.6125 -92.1778 91° East 462 532 39,000  Level Minneapolis Center
05:34PM 42.6106 -92.0056 91° East 463 533 39,000  Level Minneapolis Center
05:35PM 42.6075 -91.8339 91° East 464 534 39,000  Level Minneapolis Center
05:36PM 42.6039 -91.6289 91° East 465 535 39,000  Level Minneapolis Center
05:38PM 42.6017 -91.4583 91° East 467 537 39,000  Level Minneapolis Center
05:39PM 42.5992 -91.2864 91° East 466 536 39,000  Level Minneapolis Center
05:40PM 42.5972 -91.1164 91° East 462 532 39,000  Level Minneapolis Center
05:41PM 42.5936 -90.9103 91° East 461 531 39,000  Level Minneapolis Center
05:42PM 42.5894 -90.7389 92° East 460 529 39,000  Level Minneapolis Center
05:43PM 42.5869 -90.4975 91° East 464 534 39,000  Level Chicago Center
05:44PM 42.5825 -90.3225 92° East 468 539 39,000  Level Chicago Center
05:45PM 42.5778 -90.1481 92° East 468 539 39,000  Level Chicago Center
05:46PM 42.5733 -89.9731 92° East 469 540 39,000  Level Chicago Center
05:47PM 42.5678 -89.7628 92° East 470 541 39,000  Level Chicago Center
05:48PM 42.5625 -89.5892 92° East 468 539 39,000  Level Chicago Center
05:49PM 42.5572 -89.4128 92° East 472 543 39,000  Level Chicago Center
05:50PM 42.5517 -89.2378 92° East 471 542 39,000  Level Chicago Center
05:51PM 42.5433 -89.0436 93° East 471 542 39,000  Level Chicago Center
05:52PM 42.5372 -88.8675 93° East 471 542 39,000  Level Chicago Center
05:53PM 42.5297 -88.6903 93° East 472 543 39,000  Level Chicago Center
05:54PM 42.5214 -88.4797 93° East 469 540 39,000  Level Chicago Center
05:55PM 42.5147 -88.3053 93° East 466 536 39,000  Level Chicago Center
05:56PM 42.5061 -88.1286 94° East 470 541 39,000  Level Chicago Center
05:57PM 42.4994 -87.9531 93° East 469 540 39,000  Level Chicago Center
05:59PM 42.4992 -87.7772 90° East 469 540 39,000  Level Chicago Center
06:00PM 42.4997 -87.6006 90° East 471 542 39,000  Level Chicago Center
06:01PM 42.4983 -87.3878 90° East 473 544 39,000  Level Chicago Center
06:02PM 42.4972 -87.2097 90° East 474 545 39,000  Level Chicago Center
06:03PM 42.4958 -87.0325 91° East 473 544 39,000  Level Chicago Center
06:04PM 42.4956 -86.8542 90° East 473 544 39,000  Level Chicago Center
06:05PM 42.4917 -86.6761 92° East 473 544 39,000  Level Chicago Center
06:06PM 42.4900 -86.4708 91° East 474 545 39,000  Level Chicago Center
06:06PM 42.4900 -86.4708 91° East 474 545 39,000  Level Chicago Center
06:07PM 42.4867 -86.2917 91° East 478 550 39,000  Level Chicago Center
06:07PM 42.4867 -86.2917 91° East 478 550 39,000  Level Chicago Center
06:08PM 42.4844 -86.1158 91° East 473 544 39,000  Level Chicago Center
06:08PM 42.4844 -86.1158 91° East 473 544 39,000  Level Chicago Center
06:09PM 42.4808 -85.9397 92° East 474 545 39,000  Level Chicago Center
06:09PM 42.4808 -85.9397 92° East 474 545 39,000  Level Chicago Center
06:15PM 42.4580 -84.8720 92° East 456 525 39,000  Level FlightAware
06:15PM 42.4580 -84.8720 92° East 456 525 39,000  Level FlightAware
06:15PM 42.4550 -84.7670 92° East 455 524 39,000  Level FlightAware
06:15PM 42.4550 -84.7670 92° East 455 524 39,000  Level FlightAware
06:16PM 42.4520 -84.6590 92° East 454 522 39,000  Level FlightAware
06:16PM 42.4520 -84.6590 92° East 454 522 39,000  Level FlightAware
06:17PM 42.4500 -84.5640 92° East 454 522 39,000  Level FlightAware
06:17PM 42.4500 -84.5640 92° East 454 522 39,000  Level FlightAware
06:17PM 42.4470 -84.4660 92° East 454 522 39,000  Level FlightAware
06:17PM 42.4470 -84.4660 92° East 454 522 39,000 120 Level FlightAware
06:18PM 42.4430 -84.3630 93° East 456 525 39,100 120 Climbing FlightAware
06:18PM 42.4430 -84.3630 93° East 456 525 39,100 720 Level FlightAware
06:18PM 42.4400 -84.2700 92° East 458 527 39,500 720 Climbing FlightAware
06:18PM 42.4400 -84.2700 92° East 458 527 39,500 480 Level FlightAware
06:19PM 42.4370 -84.1690 92° East 461 531 39,800 480 Climbing FlightAware
06:19PM 42.4370 -84.1690 92° East 461 531 39,800 300 Level FlightAware
06:20PM 42.4330 -84.0600 93° East 458 527 40,000 300 Climbing FlightAware
06:20PM 42.4330 -84.0600 93° East 458 527 40,000  Level FlightAware
06:20PM 42.4300 -83.9740 93° East 454 522 40,000  Level FlightAware
06:20PM 42.4300 -83.9740 93° East 454 522 40,000  Level FlightAware
06:21PM 42.4270 -83.8650 92° East 452 520 40,000  Level FlightAware
06:21PM 42.4270 -83.8650 92° East 452 520 40,000  Level FlightAware
06:21PM 42.4230 -83.7640 93° East 454 522 40,000  Level FlightAware
06:21PM 42.4230 -83.7640 93° East 454 522 40,000  Level FlightAware
06:22PM 42.4190 -83.6580 93° East 455 524 40,000  Level FlightAware
06:22PM 42.4190 -83.6580 93° East 455 524 40,000  Level FlightAware
06:22PM 42.4150 -83.5660 93° East 456 525 40,000  Level FlightAware
06:22PM 42.4150 -83.5660 93° East 456 525 40,000  Level FlightAware
06:23PM 42.4110 -83.4620 93° East 457 526 40,000  Level FlightAware
06:23PM 42.4110 -83.4620 93° East 457 526 40,000  Level FlightAware
06:24PM 42.4070 -83.3630 93° East 458 527 40,000  Level FlightAware
06:24PM 42.4070 -83.3630 93° East 458 527 40,000  Level FlightAware
06:24PM 42.4040 -83.2690 92° East 459 528 40,000  Level FlightAware
06:24PM 42.4040 -83.2690 92° East 459 528 40,000  Level FlightAware
06:25PM 42.3990 -83.1620 94° East 460 529 40,000  Level FlightAware
06:25PM 42.3990 -83.1620 94° East 460 529 40,000  Level FlightAware
06:25PM 42.3950 -83.0570 93° East 461 531 40,000  Level FlightAware
06:25PM 42.3950 -83.0570 93° East 461 531 40,000  Level FlightAware
06:26PM 42.3910 -82.9650 93° East 462 532 40,000  Level FlightAware
06:26PM 42.3910 -82.9650 93° East 462 532 40,000  Level FlightAware
06:26PM 42.3860 -82.8670 94° East 462 532 40,000  Level FlightAware
06:26PM 42.3860 -82.8670 94° East 462 532 40,000  Level FlightAware
06:27PM 42.3820 -82.7610 93° East 464 534 40,000  Level FlightAware
06:27PM 42.3820 -82.7610 93° East 464 534 40,000  Level FlightAware
06:28PM 42.3770 -82.6610 94° East 465 535 40,000  Level FlightAware
06:28PM 42.3770 -82.6610 94° East 465 535 40,000  Level FlightAware
06:28PM 42.3730 -82.5560 93° East 465 535 40,000  Level FlightAware
06:28PM 42.3730 -82.5560 93° East 465 535 40,000  Level FlightAware
06:29PM 42.3690 -82.4530 93° East 467 537 40,000  Level FlightAware
06:29PM 42.3690 -82.4530 93° East 467 537 40,000  Level FlightAware
06:29PM 42.3660 -82.3570 92° East 468 539 40,000  Level FlightAware
06:29PM 42.3660 -82.3570 92° East 468 539 40,000  Level FlightAware
06:30PM 42.3610 -82.2530 94° East 468 539 40,000  Level FlightAware
06:30PM 42.3610 -82.2530 94° East 468 539 40,000  Level FlightAware
06:31PM 42.3570 -82.1540 93° East 469 540 40,000  Level FlightAware
06:31PM 42.3570 -82.1540 93° East 469 540 40,000  Level FlightAware
06:31PM 42.3540 -82.0710 93° East 471 542 40,000  Level FlightAware
06:31PM 42.3540 -82.0710 93° East 471 542 40,000  Level FlightAware
06:32PM 42.3480 -81.9520 94° East 472 543 40,000  Level FlightAware
06:32PM 42.3480 -81.9520 94° East 472 543 40,000  Level FlightAware
06:32PM 42.3430 -81.8540 94° East 474 545 40,000  Level FlightAware
06:32PM 42.3430 -81.8540 94° East 474 545 40,000  Level FlightAware
06:33PM 42.3330 -81.7450 97° East 477 549 40,000  Level FlightAware
06:33PM 42.3330 -81.7450 97° East 477 549 40,000  Level FlightAware
06:34PM 42.3230 -81.6430 98° East 478 550 40,000  Level FlightAware
06:34PM 42.3230 -81.6430 98° East 478 550 40,000  Level FlightAware
06:34PM 42.3160 -81.5630 97° East 477 549 40,000  Level FlightAware
06:34PM 42.3160 -81.5630 97° East 477 549 40,000  Level FlightAware
06:35PM 42.3030 -81.4380 98° East 479 551 40,000  Level FlightAware
06:35PM 42.3030 -81.4380 98° East 479 551 40,000  Level FlightAware
06:35PM 42.2910 -81.3250 98° East 479 551 40,000  Level FlightAware
06:35PM 42.2910 -81.3250 98° East 479 551 40,000  Level FlightAware
06:36PM 42.2820 -81.2480 99° East 478 550 40,000  Level FlightAware
06:36PM 42.2820 -81.2480 99° East 478 550 40,000  Level FlightAware
06:36PM 42.2690 -81.1230 98° East 480 552 40,000  Level FlightAware
06:36PM 42.2690 -81.1230 98° East 480 552 40,000  Level FlightAware
06:37PM 42.2590 -81.0130 97° East 474 545 40,000  Level FlightAware
06:37PM 42.2590 -81.0130 97° East 474 545 40,000  Level FlightAware
06:38PM 42.2600 -80.8970 89° East 470 541 40,000  Level FlightAware
06:38PM 42.2600 -80.8970 89° East 470 541 40,000  Level FlightAware
06:38PM 42.2620 -80.7790 89° East 470 541 40,000  Level FlightAware
06:38PM 42.2620 -80.7790 89° East 470 541 40,000  Level FlightAware
06:39PM 42.2630 -80.6820 89° East 470 541 40,000  Level FlightAware
06:39PM 42.2630 -80.6820 89° East 470 541 40,000  Level FlightAware
06:40PM 42.2580 -80.5720 93° East 477 549 40,000  Level FlightAware
06:40PM 42.2580 -80.5720 93° East 477 549 40,000  Level FlightAware
06:40PM 42.2440 -80.4540 99° East 483 556 40,000  Level FlightAware
06:40PM 42.2440 -80.4540 99° East 483 556 40,000  Level FlightAware
06:41PM 42.2290 -80.3360 100° East 485 558 40,000  Level FlightAware
06:41PM 42.2290 -80.3360 100° East 485 558 40,000  Level FlightAware
06:41PM 42.2180 -80.2480 100° East 486 559 40,000  Level FlightAware
06:41PM 42.2180 -80.2480 100° East 486 559 40,000  Level FlightAware
06:42PM 42.2040 -80.1440 100° East 487 560 40,000  Level FlightAware
06:42PM 42.2040 -80.1440 100° East 487 560 40,000  Level FlightAware
06:43PM 42.1900 -80.0430 101° East 488 562 40,000  Level FlightAware
06:43PM 42.1900 -80.0430 101° East 488 562 40,000  Level FlightAware
06:43PM 42.1730 -79.9210 101° East 489 563 40,000  Level FlightAware
06:43PM 42.1730 -79.9210 101° East 489 563 40,000  Level FlightAware
06:44PM 42.1600 -79.8280 101° East 490 564 40,000  Level FlightAware
06:44PM 42.1600 -79.8280 101° East 490 564 40,000  Level FlightAware
06:44PM 42.1460 -79.7270 101° East 490 564 40,000  Level FlightAware
06:44PM 42.1460 -79.7270 101° East 490 564 40,000  Level FlightAware
06:45PM 42.1300 -79.6190 101° East 492 566 40,000  Level FlightAware
06:45PM 42.1300 -79.6190 101° East 492 566 40,000  Level FlightAware
06:45PM 42.1150 -79.5140 101° East 492 566 40,000  Level FlightAware
06:45PM 42.1150 -79.5140 101° East 492 566 40,000  Level FlightAware
06:46PM 42.0980 -79.3940 101° East 494 568 40,000  Level FlightAware
06:46PM 42.0980 -79.3940 101° East 494 568 40,000  Level FlightAware
06:47PM 42.0850 -79.3050 101° East 495 570 40,000  Level FlightAware
06:47PM 42.0850 -79.3050 101° East 495 570 40,000  Level FlightAware
06:47PM 42.0710 -79.2100 101° East 495 570 40,000  Level FlightAware
06:47PM 42.0710 -79.2100 101° East 495 570 40,000  Level FlightAware
06:48PM 42.0560 -79.1030 101° East 495 570 40,000  Level FlightAware
06:48PM 42.0560 -79.1030 101° East 495 570 40,000  Level FlightAware
06:48PM 42.0390 -78.9890 101° East 495 570 40,000  Level FlightAware
06:48PM 42.0390 -78.9890 101° East 495 570 40,000  Level FlightAware
06:49PM 42.0240 -78.8850 101° East 495 570 40,000  Level FlightAware
06:49PM 42.0240 -78.8850 101° East 495 570 40,000  Level FlightAware
06:50PM 42.0050 -78.7620 102° East 494 568 40,000  Level FlightAware
06:50PM 42.0050 -78.7620 102° East 494 568 40,000  Level FlightAware
06:50PM 41.9920 -78.6720 101° East 493 567 40,000  Level FlightAware
06:50PM 41.9920 -78.6720 101° East 493 567 40,000  Level FlightAware
06:51PM 41.9760 -78.5670 102° East 493 567 40,000  Level FlightAware
06:51PM 41.9760 -78.5670 102° East 493 567 40,000 -180 Level FlightAware
06:51PM 41.9600 -78.4610 101° East 493 567 39,900 -180 Descending FlightAware
06:51PM 41.9600 -78.4610 101° East 493 567 39,900 -900 Level FlightAware
06:52PM 41.9450 -78.3660 102° East 493 567 39,400 -900 Descending FlightAware
06:52PM 41.9450 -78.3660 102° East 493 567 39,400 -600 Level FlightAware
06:53PM 41.9210 -78.2450 105° East 497 572 39,000 -600 Descending FlightAware
06:53PM 41.9210 -78.2450 105° East 497 572 39,000  Level FlightAware
06:53PM 41.8990 -78.1480 107° East 499 574 39,000  Level FlightAware
06:53PM 41.8990 -78.1480 107° East 499 574 39,000  Level FlightAware
06:54PM 41.8730 -78.0300 106° East 496 571 39,000  Level FlightAware
06:54PM 41.8730 -78.0300 106° East 496 571 39,000  Level FlightAware
06:54PM 41.8520 -77.9340 106° East 495 570 39,000  Level FlightAware
06:54PM 41.8520 -77.9340 106° East 495 570 39,000  Level FlightAware
06:55PM 41.8270 -77.8220 107° East 494 568 39,000  Level FlightAware
06:55PM 41.8270 -77.8220 107° East 494 568 39,000  Level FlightAware
06:55PM 41.8040 -77.7160 106° East 491 565 39,000  Level FlightAware
06:55PM 41.8040 -77.7160 106° East 491 565 39,000  Level FlightAware
06:56PM 41.7840 -77.6230 106° East 489 563 39,000  Level FlightAware
06:56PM 41.7840 -77.6230 106° East 489 563 39,000  Level FlightAware
06:57PM 41.7590 -77.5100 106° East 490 564 39,000  Level FlightAware
06:57PM 41.7590 -77.5100 106° East 490 564 39,000  Level FlightAware
06:57PM 41.7390 -77.4180 106° East 487 560 39,000  Level FlightAware
06:57PM 41.7390 -77.4180 106° East 487 560 39,000  Level FlightAware
06:58PM 41.7180 -77.3270 107° East 487 560 39,000  Level FlightAware
06:58PM 41.7180 -77.3270 107° East 487 560 39,000  Level FlightAware
06:58PM 41.6930 -77.2150 107° East 486 559 39,000  Level FlightAware
06:58PM 41.6930 -77.2150 107° East 486 559 39,000  Level FlightAware
06:59PM 41.6690 -77.1140 108° East 486 559 39,000  Level FlightAware
06:59PM 41.6690 -77.1140 108° East 486 559 39,000  Level FlightAware
07:00PM 41.6420 -77.0140 110° East 484 557 39,000  Level FlightAware
07:00PM 41.6420 -77.0140 110° East 484 557 39,000  Level FlightAware
07:00PM 41.6170 -76.9240 110° East 484 557 39,000  Level FlightAware
07:00PM 41.6170 -76.9240 110° East 484 557 39,000  Level FlightAware
07:01PM 41.5900 -76.8240 110° East 484 557 39,000  Level FlightAware
07:01PM 41.5900 -76.8240 110° East 484 557 39,000  Level FlightAware
07:01PM 41.5610 -76.7200 110° East 484 557 39,000  Level FlightAware
07:01PM 41.5610 -76.7200 110° East 484 557 39,000  Level FlightAware
07:02PM 41.5380 -76.6350 110° East 484 557 39,000  Level FlightAware
07:02PM 41.5380 -76.6350 110° East 484 557 39,000  Level FlightAware
07:02PM 41.5080 -76.5270 110° East 484 557 39,000  Level FlightAware
07:02PM 41.5080 -76.5270 110° East 484 557 39,000  Level FlightAware
07:03PM 41.4830 -76.4370 110° East 485 558 39,000  Level FlightAware
07:03PM 41.4830 -76.4370 110° East 485 558 39,000 -660 Level FlightAware
07:04PM 41.4540 -76.3320 110° East 487 560 38,600 -660 Descending FlightAware
07:04PM 41.4540 -76.3320 110° East 487 560 38,600  Level FlightAware
07:04PM 41.4540 -76.3320 110° East 487 560 38,600  Level FlightAware
07:04PM 41.4540 -76.3320 110° East 487 560 38,600  Level FlightAware
07:04PM 41.4540 -76.3320 110° East 487 560 38,600 -960 Level FlightAware
07:04PM 41.4280 -76.2400 111° Southeast 482 555 38,100 -960 Descending FlightAware
07:04PM 41.4280 -76.2400 111° Southeast 482 555 38,100  Level FlightAware
07:04PM 41.4280 -76.2400 111° Southeast 482 555 38,100  Level FlightAware
07:04PM 41.4280 -76.2400 111° Southeast 482 555 38,100  Level FlightAware
07:04PM 41.4280 -76.2400 111° Southeast 482 555 38,100 -1,380 Level FlightAware
07:05PM 41.3990 -76.1360 110° East 485 558 37,300 -1,440 Descending FlightAware
07:05PM 41.3700 -76.0320 110° East 491 565 36,400 -1,800 Descending FlightAware
07:06PM 41.3480 -75.9540 111° Southeast 495 570 35,300 -2,820 Descending FlightAware
07:07PM 41.3160 -75.8410 111° Southeast 492 566 33,200 -3,480 Descending FlightAware
07:07PM 41.2830 -75.7250 111° Southeast 487 560 30,700 -3,720 Descending FlightAware
07:08PM 41.2510 -75.6240 113° Southeast 487 560 28,500 -3,540 Descending FlightAware
07:08PM 41.2190 -75.5270 114° Southeast 479 551 26,600 -1,860 Descending FlightAware
07:11PM 41.0930 -75.1550 114° Southeast 471 542 23,000 -1,080 Descending FlightAware
07:12PM 41.0350 -74.9830 114° Southeast 466 536 23,000  Level FlightAware
07:12PM 41.0110 -74.9110 114° Southeast 467 537 23,000  Level FlightAware
07:13PM 40.9870 -74.7840 104° East 461 531 23,000  Level FlightAware
07:14PM 40.9770 -74.6960 99° East 460 529 23,000 -960 Level FlightAware
07:19PM 40.7980 -74.0510 110° East 343 395 17,800 -1,320 Descending FlightAware
07:20PM 40.6880 -74.0380 175° South 324 373 14,900 -1,440 Descending FlightAware
07:22PM 40.4800 -74.0280 178° South 316 364 12,800 -840 Descending FlightAware
07:23PM 40.4140 -74.0050 165° South 305 351 12,400 -1,620 Descending FlightAware
07:24PM 40.3500 -73.9270 137° Southeast 291 335 9,800 -2,460 Descending FlightAware
07:24PM 40.3370 -73.9110 137° Southeast 287 330 9,300 -2,280 Descending FlightAware
07:25PM 40.3040 -73.8700 137° Southeast 283 326 8,000 -2,280 Descending FlightAware
07:25PM 40.2980 -73.8580 123° Southeast 278 320 7,700 -1,740 Descending FlightAware
07:27PM 40.3040 -73.6930 87° East 260 299 4,600 -960 Descending FlightAware
07:29PM 40.4380 -73.5620 37° Northeast 253 291 3,800 -300 Descending FlightAware
07:30PM 40.4600 -73.5470 27° Northeast 252 290 3,800  Level FlightAware
07:30PM 40.4730 -73.5380 28° Northeast 252 290 3,800  Level FlightAware
07:31PM 40.5320 -73.4960 28° Northeast 252 290 3,800  Level FlightAware
07:31PM 40.5510 -73.4830 27° Northeast 251 289 3,800  Level FlightAware
07:33PM 40.6690 -73.4020 27° Northeast 255 293 3,800  Level FlightAware
07:33PM 40.6790 -73.3980 17° North 249 287 3,800  Level FlightAware
07:34PM 40.7090 -73.4050 350° North 228 262 3,800  Level FlightAware
07:34PM 40.7290 -73.4160 337° Northwest 215 247 3,800 -480 Level FlightAware
07:35PM 40.7750 -73.4770 315° West 212 244 3,100 -600 Descending FlightAware
07:36PM 40.8060 -73.5160 316° Northwest 191 220 2,800 -360 Descending FlightAware
07:39PM 40.7790 -73.6500 255° West 184 212 1,900 -480 Descending FlightAware
07:42PM 40.6550 -73.7470 211° Southwest 129 148 100 -540 Descending FlightAware
07:43PM 40.6360 -73.7620 211° Southwest 110 127 -180 Descending FlightAware